createdAt,value
2022-10-13T00:00:49.861Z,20.38
2022-10-13T00:03:51.775Z,26.00
2022-10-13T00:06:53.644Z,23.60
2022-10-13T00:09:56.876Z,21.13
2022-10-13T00:12:58.759Z,23.88
2022-10-13T00:16:03.028Z,20.55
2022-10-13T00:19:05.248Z,27.33
2022-10-13T00:22:07.202Z,24.33
2022-10-13T00:25:10.701Z,25.52
2022-10-13T00:28:13.581Z,22.95
2022-10-13T00:31:17.528Z,23.73
2022-10-13T00:34:19.456Z,21.02
2022-10-13T00:37:21.393Z,24.05
2022-10-13T00:40:24.859Z,24.05
2022-10-13T00:43:47.396Z,26.75
2022-10-13T00:46:49.310Z,22.90
2022-10-13T00:49:53.039Z,22.42
2022-10-13T00:52:57.077Z,29.75
2022-10-13T00:56:01.189Z,23.77
2022-10-13T00:59:05.553Z,27.70
2022-10-13T01:02:08.025Z,26.30
2022-10-13T01:05:10.186Z,26.45
2022-10-13T01:08:13.001Z,28.10
2022-10-13T01:11:29.595Z,27.65
2022-10-13T01:14:36.511Z,28.20
2022-10-13T01:17:49.897Z,29.02
2022-10-13T01:21:16.797Z,26.10
2022-10-13T01:24:47.637Z,27.10
2022-10-13T01:31:07.174Z,28.73
2022-10-13T01:34:16.302Z,25.38
2022-10-13T01:37:27.527Z,26.27
2022-10-13T01:40:35.321Z,29.85
2022-10-13T01:43:42.086Z,25.58
2022-10-13T01:46:49.540Z,28.17
2022-10-13T01:49:53.064Z,25.52
2022-10-13T01:52:55.896Z,29.50
2022-10-13T01:56:00.064Z,26.33
2022-10-13T01:59:05.623Z,26.83
2022-10-13T02:02:18.974Z,29.98
2022-10-13T02:05:27.327Z,28.60
2022-10-13T02:08:36.886Z,24.85
2022-10-13T02:11:43.142Z,25.00
2022-10-13T02:14:46.932Z,22.98
2022-10-13T02:17:51.232Z,24.75
2022-10-13T02:20:54.275Z,23.60
2022-10-13T02:23:56.225Z,26.08
2022-10-13T02:26:58.376Z,22.58
2022-10-13T02:30:00.365Z,27.63
2022-10-13T02:33:03.797Z,25.13
2022-10-13T02:36:06.130Z,26.55
2022-10-13T02:39:09.540Z,26.33
2022-10-13T02:42:11.738Z,25.48
2022-10-13T02:45:13.742Z,27.80
2022-10-13T02:48:17.095Z,26.13
2022-10-13T02:51:19.060Z,28.02
2022-10-13T02:54:22.003Z,27.75
2022-10-13T02:57:24.967Z,26.55
2022-10-13T03:00:26.907Z,24.40
2022-10-13T03:03:30.267Z,27.58
2022-10-13T03:06:32.131Z,20.90
2022-10-13T03:09:33.994Z,27.15
2022-10-13T03:12:35.905Z,28.83
2022-10-13T03:15:38.826Z,25.48
2022-10-13T03:18:42.097Z,29.92
2022-10-13T03:21:44.011Z,28.15
2022-10-13T03:24:46.077Z,27.20
2022-10-13T03:27:47.953Z,24.02
2022-10-13T03:30:50.961Z,25.48
2022-10-13T03:33:54.579Z,27.48
2022-10-13T03:36:56.601Z,23.83
2022-10-13T03:39:58.604Z,26.75
2022-10-13T03:43:00.537Z,22.08
2022-10-13T03:46:03.522Z,26.10
2022-10-13T03:49:07.113Z,26.05
2022-10-13T03:52:09.054Z,25.10
2022-10-13T03:55:11.046Z,25.25
2022-10-13T03:58:13.068Z,24.02
2022-10-13T04:01:15.035Z,25.02
2022-10-13T04:04:18.355Z,28.60
2022-10-13T04:07:20.265Z,21.52
2022-10-13T04:10:22.174Z,22.95
2022-10-13T04:13:24.028Z,36.58
2022-10-13T04:16:28.216Z,31.05
2022-10-13T04:19:31.467Z,27.70
2022-10-13T04:22:33.706Z,26.52
2022-10-13T04:25:35.979Z,28.00
2022-10-13T04:28:37.882Z,27.10
2022-10-13T04:31:40.303Z,26.90
2022-10-13T04:34:43.598Z,24.45
2022-10-13T04:37:45.498Z,27.27
2022-10-13T04:40:47.482Z,21.88
2022-10-13T04:43:50.284Z,24.27
2022-10-13T04:46:52.156Z,24.55
2022-10-13T04:49:55.432Z,26.08
2022-10-13T04:52:59.018Z,23.63
2022-10-13T04:56:03.064Z,24.50
2022-10-13T04:59:05.401Z,27.13
2022-10-13T05:02:07.470Z,30.23
2022-10-13T05:05:11.254Z,24.52
2022-10-13T05:08:13.117Z,40.65
2022-10-13T05:11:16.134Z,26.30
2022-10-13T05:14:18.131Z,25.38
2022-10-13T05:17:20.885Z,23.35
2022-10-13T05:20:29.685Z,25.33
2022-10-13T05:23:33.066Z,23.85
2022-10-13T05:26:36.042Z,26.08
2022-10-13T05:29:40.551Z,24.38
2022-10-13T05:32:43.333Z,23.13
2022-10-13T05:35:48.050Z,26.80
2022-10-13T05:38:52.352Z,27.25
2022-10-13T05:41:56.036Z,31.23
2022-10-13T05:44:59.840Z,28.25
2022-10-13T05:48:01.913Z,26.27
2022-10-13T05:51:07.738Z,29.42
2022-10-13T05:54:14.098Z,29.13
2022-10-13T05:57:21.446Z,35.70
2022-10-13T06:00:25.427Z,30.20
2022-10-13T06:03:28.519Z,31.52
2022-10-13T06:06:33.186Z,30.70
2022-10-13T06:09:38.357Z,32.33
2022-10-13T06:12:40.389Z,30.08
2022-10-13T06:15:42.300Z,26.73
2022-10-13T06:18:44.476Z,27.77
2022-10-13T06:21:47.809Z,27.98
2022-10-13T06:24:49.853Z,27.67
2022-10-13T06:27:51.759Z,26.40
2022-10-13T06:30:53.693Z,29.58
2022-10-13T06:33:55.716Z,31.92
2022-10-13T06:36:59.158Z,30.48
2022-10-13T06:40:01.077Z,32.85
2022-10-13T06:43:03.266Z,33.50
2022-10-13T06:46:05.563Z,34.53
2022-10-13T06:49:07.658Z,31.33
2022-10-13T06:52:10.946Z,33.08
2022-10-13T06:55:13.029Z,36.60
2022-10-13T06:58:14.887Z,30.05
2022-10-13T07:01:16.951Z,33.03
2022-10-13T07:04:18.874Z,34.47
2022-10-13T07:07:22.270Z,36.08
2022-10-13T07:10:24.290Z,38.85
2022-10-13T07:13:26.236Z,34.05
2022-10-13T07:16:28.212Z,31.52
2022-10-13T07:19:30.204Z,33.97
2022-10-13T07:22:33.475Z,31.70
2022-10-13T07:25:35.441Z,30.23
2022-10-13T07:28:38.055Z,33.45
2022-10-13T07:31:40.220Z,28.27
2022-10-13T07:34:42.133Z,36.28
2022-10-13T07:37:45.722Z,35.83
2022-10-13T07:40:47.649Z,32.85
2022-10-13T07:43:49.716Z,35.25
2022-10-13T07:46:51.723Z,30.83
2022-10-13T07:49:53.606Z,35.03
2022-10-13T07:52:56.935Z,31.52
2022-10-13T07:56:00.488Z,31.67
2022-10-13T07:59:02.742Z,32.78
2022-10-13T08:02:04.797Z,33.72
2022-10-13T08:05:07.225Z,34.25
2022-10-13T08:08:10.435Z,34.97
2022-10-13T08:11:16.434Z,28.98
2022-10-13T08:14:19.133Z,33.75
2022-10-13T08:17:21.281Z,28.15
2022-10-13T08:20:26.291Z,31.30
2022-10-13T08:23:32.058Z,25.80
2022-10-13T08:26:33.930Z,25.42
2022-10-13T08:29:35.961Z,28.63
2022-10-13T08:32:38.014Z,30.00
2022-10-13T08:35:40.072Z,25.40
2022-10-13T08:38:43.839Z,27.95
2022-10-13T08:41:46.140Z,20.20
2022-10-13T08:45:28.347Z,23.05
2022-10-13T08:48:18.632Z,20.15
2022-10-13T08:51:21.040Z,20.85
2022-10-13T08:54:26.027Z,22.48
2022-10-13T08:57:27.948Z,26.08
2022-10-13T09:00:30.372Z,20.98
2022-10-13T09:03:32.297Z,23.98
2022-10-13T09:06:38.697Z,28.58
2022-10-13T09:09:42.411Z,24.05
2022-10-13T09:12:44.417Z,19.58
2022-10-13T09:15:48.127Z,20.67
2022-10-13T09:18:50.119Z,21.08
2022-10-13T09:21:54.178Z,20.90
2022-10-13T09:25:16.717Z,21.77
2022-10-13T09:28:22.963Z,18.70
2022-10-13T09:31:27.939Z,21.90
2022-10-13T09:34:29.986Z,23.92
2022-10-13T09:37:31.870Z,17.58
2022-10-13T09:40:37.034Z,16.55
2022-10-13T09:43:42.929Z,19.05
2022-10-13T09:46:56.618Z,13.95
2022-10-13T09:50:06.561Z,13.52
2022-10-13T09:53:26.307Z,19.35
2022-10-13T09:56:36.210Z,18.98
2022-10-13T09:59:43.169Z,16.45
2022-10-13T10:02:53.549Z,16.38
2022-10-13T10:05:57.511Z,16.63
2022-10-13T10:09:05.965Z,13.73
2022-10-13T10:12:16.281Z,15.43
2022-10-13T10:15:23.675Z,14.48
2022-10-13T10:18:33.872Z,14.52
2022-10-13T10:21:42.677Z,14.20
2022-10-13T10:24:52.082Z,12.70
2022-10-13T10:31:18.597Z,17.30
2022-10-13T10:34:31.040Z,13.32
2022-10-13T10:37:52.374Z,13.35
2022-10-13T10:41:02.222Z,13.50
2022-10-13T10:44:10.081Z,16.52
2022-10-13T10:47:28.200Z,13.38
2022-10-13T10:50:31.837Z,13.02
2022-10-13T10:53:42.006Z,16.48
2022-10-13T10:56:49.476Z,17.90
2022-10-13T10:59:59.546Z,12.23
2022-10-13T11:03:08.512Z,15.45
2022-10-13T11:06:31.702Z,12.85
2022-10-13T11:10:17.229Z,13.63
2022-10-13T11:13:19.265Z,15.85
2022-10-13T11:16:29.559Z,16.42
2022-10-13T11:19:32.967Z,17.98
2022-10-13T11:22:34.919Z,14.52
2022-10-13T11:25:38.075Z,15.48
2022-10-13T11:28:47.662Z,13.93
2022-10-13T11:31:53.838Z,17.48
2022-10-13T11:34:59.431Z,18.20
2022-10-13T11:38:18.204Z,15.45
2022-10-13T11:41:28.101Z,14.15
2022-10-13T11:44:37.785Z,15.15
2022-10-13T11:47:58.242Z,13.40
2022-10-13T11:51:12.511Z,18.50
2022-10-13T11:54:27.310Z,14.20
2022-10-13T11:57:29.392Z,18.88
2022-10-13T12:00:31.500Z,13.73
2022-10-13T12:03:36.499Z,14.52
2022-10-13T12:06:38.696Z,17.90
2022-10-13T12:09:49.561Z,16.33
2022-10-13T12:12:52.054Z,15.82
2022-10-13T12:15:59.449Z,14.15
2022-10-13T12:19:20.893Z,15.50
2022-10-13T12:22:23.147Z,14.48
2022-10-13T12:25:28.161Z,14.30
2022-10-13T12:28:43.601Z,17.77
2022-10-13T12:31:47.504Z,17.27
2022-10-13T12:34:51.117Z,19.45
2022-10-13T12:37:54.341Z,12.50
2022-10-13T12:40:56.825Z,17.02
2022-10-13T12:44:01.252Z,13.35
2022-10-13T12:47:06.192Z,14.68
2022-10-13T12:50:37.149Z,13.10
2022-10-13T12:53:39.304Z,15.52
2022-10-13T12:56:42.492Z,10.40
2022-10-13T12:59:44.523Z,16.25
2022-10-13T13:02:52.034Z,14.48
2022-10-13T13:06:10.339Z,15.77
2022-10-13T13:09:21.213Z,15.20
2022-10-13T13:12:28.705Z,10.98
2022-10-13T13:15:34.029Z,14.75
2022-10-13T13:18:38.980Z,14.35
2022-10-13T13:21:42.533Z,12.95
2022-10-13T13:24:45.147Z,17.55
2022-10-13T13:27:47.376Z,13.25
2022-10-13T13:30:49.242Z,16.58
2022-10-13T13:33:51.257Z,13.60
2022-10-13T13:36:54.689Z,15.48
2022-10-13T13:39:56.608Z,19.20
2022-10-13T13:42:58.557Z,12.32
2022-10-13T13:46:00.372Z,14.70
2022-10-13T13:49:02.312Z,14.10
2022-10-13T13:52:05.680Z,14.40
2022-10-13T13:55:08.727Z,18.23
2022-10-13T13:58:11.826Z,17.13
2022-10-13T14:01:14.539Z,16.10
2022-10-13T14:04:16.452Z,17.42
2022-10-13T14:07:20.006Z,12.57
2022-10-13T14:10:22.390Z,15.48
2022-10-13T14:13:24.395Z,18.38
2022-10-13T14:16:26.448Z,16.60
2022-10-13T14:19:28.629Z,18.77
2022-10-13T14:22:32.042Z,16.10
2022-10-13T14:25:33.996Z,17.58
2022-10-13T14:28:35.932Z,17.20
2022-10-13T14:31:37.957Z,17.67
2022-10-13T14:34:39.988Z,15.70
2022-10-13T14:37:43.365Z,16.08
2022-10-13T14:40:45.287Z,14.73
2022-10-13T14:43:47.193Z,17.58
2022-10-13T14:46:49.144Z,17.52
2022-10-13T14:49:51.061Z,22.10
2022-10-13T14:52:54.460Z,21.30
2022-10-13T14:55:56.416Z,17.98
2022-10-13T14:59:01.581Z,17.40
2022-10-13T15:02:03.546Z,18.83
2022-10-13T15:05:06.672Z,18.38
2022-10-13T15:08:10.228Z,25.00
2022-10-13T15:11:12.578Z,19.30
2022-10-13T15:14:14.621Z,23.00
2022-10-13T15:17:16.513Z,21.95
2022-10-13T15:20:18.837Z,57.22
2022-10-13T15:23:22.270Z,23.85
2022-10-13T15:26:24.298Z,18.90
2022-10-13T15:29:26.249Z,15.88
2022-10-13T15:32:28.681Z,19.25
2022-10-13T15:35:30.646Z,23.77
2022-10-13T15:38:33.912Z,19.90
2022-10-13T15:41:35.851Z,18.65
2022-10-13T15:45:08.025Z,21.58
2022-10-13T15:47:59.694Z,21.35
2022-10-13T15:51:02.381Z,18.30
2022-10-13T15:54:07.290Z,20.92
2022-10-13T15:57:09.211Z,16.90
2022-10-13T16:00:12.943Z,21.33
2022-10-13T16:03:17.332Z,28.83
2022-10-13T16:06:19.180Z,17.80
2022-10-13T16:09:22.467Z,20.77
2022-10-13T16:12:24.410Z,18.70
2022-10-13T16:15:26.411Z,15.20
2022-10-13T16:18:31.688Z,16.70
2022-10-13T16:21:33.688Z,19.58
2022-10-13T16:24:37.265Z,21.77
2022-10-13T16:27:43.846Z,18.52
2022-10-13T16:30:46.349Z,23.83
2022-10-13T16:33:48.469Z,19.05
2022-10-13T16:36:50.374Z,26.08
2022-10-13T16:39:53.733Z,21.10
2022-10-13T16:42:55.738Z,18.05
2022-10-13T16:46:00.001Z,14.40
2022-10-13T16:49:02.496Z,18.65
2022-10-13T16:52:04.587Z,19.38
2022-10-13T16:55:09.065Z,20.02
2022-10-13T16:58:11.424Z,14.35
2022-10-13T17:01:13.783Z,25.58
2022-10-13T17:04:19.802Z,21.00
2022-10-13T17:07:24.362Z,24.65
2022-10-13T17:10:27.852Z,19.40
2022-10-13T17:13:31.563Z,20.23
2022-10-13T17:16:34.138Z,24.45
2022-10-13T17:19:36.077Z,17.75
2022-10-13T17:22:38.604Z,18.35
2022-10-13T17:25:42.654Z,20.00
2022-10-13T17:28:45.649Z,22.55
2022-10-13T17:31:48.629Z,22.55
2022-10-13T17:34:51.152Z,18.98
2022-10-13T17:37:53.907Z,19.70
2022-10-13T17:41:02.754Z,25.70
2022-10-13T17:44:10.002Z,22.13
2022-10-13T17:47:12.195Z,21.40
2022-10-13T17:50:15.849Z,22.73
2022-10-13T17:53:18.456Z,23.30
2022-10-13T17:56:25.111Z,23.25
2022-10-13T17:59:27.282Z,29.70
2022-10-13T18:02:29.721Z,29.52
2022-10-13T18:05:32.004Z,27.20
2022-10-13T18:08:34.649Z,26.30
2022-10-13T18:11:39.691Z,27.90
2022-10-13T18:14:43.255Z,29.73
2022-10-13T18:17:46.343Z,21.80
2022-10-13T18:20:48.857Z,24.10
2022-10-13T18:23:52.137Z,19.58
2022-10-13T18:26:56.655Z,22.95
2022-10-13T18:29:59.202Z,27.00
2022-10-13T18:33:01.914Z,23.98
2022-10-13T18:36:12.868Z,23.38
2022-10-13T18:39:17.762Z,22.83
2022-10-13T18:42:22.382Z,22.70
2022-10-13T18:45:25.209Z,29.75
2022-10-13T18:48:28.462Z,24.23
2022-10-13T18:51:35.908Z,21.58
2022-10-13T18:54:39.418Z,22.00
2022-10-13T18:57:44.751Z,24.30
2022-10-13T19:00:47.391Z,25.45
2022-10-13T19:03:51.271Z,22.27
2022-10-13T19:06:53.954Z,28.70
2022-10-13T19:09:57.127Z,27.73
2022-10-13T19:13:01.185Z,26.75
2022-10-13T19:16:04.127Z,24.45
2022-10-13T19:19:06.997Z,21.35
2022-10-13T19:22:11.033Z,24.73
2022-10-13T19:25:13.957Z,28.17
2022-10-13T19:28:21.389Z,20.20
2022-10-13T19:31:26.405Z,19.42
2022-10-13T19:34:29.296Z,17.77
2022-10-13T19:37:32.773Z,22.35
2022-10-13T19:40:41.473Z,19.85
2022-10-13T19:43:47.039Z,23.17
2022-10-13T19:46:50.877Z,26.00
2022-10-13T19:49:54.238Z,23.45
2022-10-13T19:52:57.025Z,23.60
2022-10-13T19:55:59.859Z,28.05
2022-10-13T19:59:04.955Z,27.63
2022-10-13T20:02:08.285Z,27.83
2022-10-13T20:05:10.974Z,31.30
2022-10-13T20:08:13.542Z,25.35
2022-10-13T20:11:22.401Z,29.08
2022-10-13T20:14:27.874Z,24.58
2022-10-13T20:17:30.550Z,35.92
2022-10-13T20:20:34.041Z,29.15
2022-10-13T20:23:36.489Z,25.83
2022-10-13T20:26:38.886Z,27.50
2022-10-13T20:29:42.370Z,27.98
2022-10-13T20:32:44.332Z,26.63
2022-10-13T20:35:46.324Z,25.65
2022-10-13T20:38:48.788Z,22.08
2022-10-13T20:41:50.726Z,25.80
2022-10-13T20:44:54.059Z,25.85
2022-10-13T20:47:56.086Z,21.38
2022-10-13T20:51:01.596Z,24.90
2022-10-13T20:54:03.693Z,25.88
2022-10-13T20:57:05.625Z,24.13
2022-10-13T21:00:10.629Z,21.23
2022-10-13T21:03:12.531Z,21.38
2022-10-13T21:06:15.195Z,27.60
2022-10-13T21:09:17.171Z,25.15
2022-10-13T21:12:19.150Z,25.63
2022-10-13T21:15:22.494Z,22.58
2022-10-13T21:18:24.570Z,22.02
2022-10-13T21:21:29.194Z,23.40
2022-10-13T21:24:31.241Z,26.70
2022-10-13T21:27:33.227Z,22.45
2022-10-13T21:30:36.548Z,28.00
2022-10-13T21:33:39.733Z,21.67
2022-10-13T21:36:41.671Z,25.25
2022-10-13T21:39:43.622Z,26.30
2022-10-13T21:42:45.839Z,28.33
2022-10-13T21:45:49.301Z,29.48
2022-10-13T21:48:53.167Z,26.85
2022-10-13T21:51:55.283Z,28.05
2022-10-13T21:54:57.151Z,27.10
2022-10-13T21:58:02.972Z,21.45
2022-10-13T22:01:08.747Z,20.25
2022-10-13T22:04:13.478Z,26.10
2022-10-13T22:07:15.469Z,33.83
2022-10-13T22:10:17.468Z,32.70
2022-10-13T22:13:19.386Z,28.17
2022-10-13T22:16:24.282Z,25.50
2022-10-13T22:19:26.258Z,21.65
2022-10-13T22:22:30.926Z,22.67
2022-10-13T22:25:33.132Z,29.15
2022-10-13T22:28:37.467Z,29.77
2022-10-13T22:31:41.125Z,30.83
2022-10-13T22:34:43.090Z,27.92
2022-10-13T22:37:44.999Z,24.08
2022-10-13T22:40:46.936Z,31.80
2022-10-13T22:43:50.666Z,27.08
2022-10-13T22:46:53.954Z,33.42
2022-10-13T22:49:55.961Z,28.35
2022-10-13T22:52:57.851Z,29.20
2022-10-13T22:56:00.297Z,29.92
2022-10-13T22:59:04.989Z,26.63
2022-10-13T23:02:08.387Z,33.90
2022-10-13T23:05:10.319Z,34.65
2022-10-13T23:08:12.278Z,26.10
2022-10-13T23:11:14.454Z,33.60
2022-10-13T23:14:16.541Z,22.77
2022-10-13T23:17:20.245Z,28.60
2022-10-13T23:20:22.465Z,25.70
2022-10-13T23:23:24.482Z,25.20
2022-10-13T23:26:26.832Z,23.40
2022-10-13T23:29:28.710Z,23.10
2022-10-13T23:32:32.004Z,34.33
2022-10-13T23:35:33.937Z,25.85
2022-10-13T23:38:35.835Z,31.35
2022-10-13T23:41:38.089Z,29.60
2022-10-13T23:44:40.009Z,29.30
2022-10-13T23:47:43.409Z,27.48
2022-10-13T23:50:45.344Z,30.67
2022-10-13T23:53:47.382Z,29.83
2022-10-13T23:56:49.322Z,31.52
2022-10-13T23:59:51.284Z,31.67
